sensor_id;sensor_type;location;lat;lon;timestamp;pressure;altitude;pressure_sealevel;temperature;humidity
27840;BME280;15207;42.182;24.308;2023-07-31T00:02:22;98614.00;;;24.72;47.85
27840;BME280;15207;42.182;24.308;2023-07-31T00:04:47;98614.69;;;24.67;47.00
27840;BME280;15207;42.182;24.308;2023-07-31T00:07:14;98605.19;;;24.70;46.68
27840;BME280;15207;42.182;24.308;2023-07-31T00:09:40;98613.16;;;24.72;46.81
27840;BME280;15207;42.182;24.308;2023-07-31T00:12:07;98615.19;;;24.76;47.50
27840;BME280;15207;42.182;24.308;2023-07-31T00:14:33;98621.00;;;24.68;48.22
27840;BME280;15207;42.182;24.308;2023-07-31T00:17:00;98626.03;;;24.52;48.72
27840;BME280;15207;42.182;24.308;2023-07-31T00:19:26;98629.75;;;24.39;48.68
27840;BME280;15207;42.182;24.308;2023-07-31T00:21:52;98628.00;;;24.26;49.25
27840;BME280;15207;42.182;24.308;2023-07-31T00:24:18;98630.59;;;24.21;49.89
27840;BME280;15207;42.182;24.308;2023-07-31T00:26:44;98630.50;;;24.09;50.63
27840;BME280;15207;42.182;24.308;2023-07-31T00:29:10;98641.53;;;23.77;51.76
27840;BME280;15207;42.182;24.308;2023-07-31T00:31:35;98647.78;;;23.59;52.94
27840;BME280;15207;42.182;24.308;2023-07-31T00:34:01;98662.34;;;23.53;53.88
27840;BME280;15207;42.182;24.308;2023-07-31T00:36:27;98650.34;;;23.54;54.93
27840;BME280;15207;42.182;24.308;2023-07-31T00:38:53;98646.50;;;23.61;55.32
27840;BME280;15207;42.182;24.308;2023-07-31T00:41:19;98651.50;;;23.64;55.63
27840;BME280;15207;42.182;24.308;2023-07-31T00:43:46;98652.50;;;23.70;55.45
27840;BME280;15207;42.182;24.308;2023-07-31T00:46:12;98661.19;;;23.67;56.34
27840;BME280;15207;42.182;24.308;2023-07-31T00:48:39;98660.31;;;23.67;56.76
27840;BME280;15207;42.182;24.308;2023-07-31T00:51:05;98659.81;;;23.76;55.99
27840;BME280;15207;42.182;24.308;2023-07-31T00:53:31;98667.47;;;23.68;56.93
27840;BME280;15207;42.182;24.308;2023-07-31T00:55:56;98672.50;;;23.71;56.94
27840;BME280;15207;42.182;24.308;2023-07-31T00:58:22;98675.00;;;23.72;57.09
27840;BME280;15207;42.182;24.308;2023-07-31T01:00:49;98664.00;;;23.79;56.35
27840;BME280;15207;42.182;24.308;2023-07-31T01:03:16;98672.75;;;23.88;55.33
27840;BME280;15207;42.182;24.308;2023-07-31T01:06:02;98672.25;;;23.98;54.40
27840;BME280;15207;42.182;24.308;2023-07-31T01:11:10;98671.09;;;24.12;54.02
27840;BME280;15207;42.182;24.308;2023-07-31T01:13:40;98661.53;;;24.22;54.25
27840;BME280;15207;42.182;24.308;2023-07-31T01:16:07;98658.94;;;24.27;54.86
27840;BME280;15207;42.182;24.308;2023-07-31T01:18:33;98660.91;;;24.38;54.81
27840;BME280;15207;42.182;24.308;2023-07-31T01:21:30;98662.38;;;24.41;55.80
27840;BME280;15207;42.182;24.308;2023-07-31T01:26:24;98652.69;;;24.20;62.72
27840;BME280;15207;42.182;24.308;2023-07-31T01:31:25;98646.41;;;24.19;67.05
27840;BME280;15207;42.182;24.308;2023-07-31T01:33:57;98641.34;;;23.97;68.49
27840;BME280;15207;42.182;24.308;2023-07-31T01:36:26;98643.53;;;23.88;71.00
27840;BME280;15207;42.182;24.308;2023-07-31T01:38:52;98631.50;;;23.71;72.44
27840;BME280;15207;42.182;24.308;2023-07-31T01:41:18;98633.22;;;23.65;71.94
27840;BME280;15207;42.182;24.308;2023-07-31T01:43:45;98634.13;;;23.59;74.03
27840;BME280;15207;42.182;24.308;2023-07-31T01:46:11;98641.94;;;23.55;74.77
27840;BME280;15207;42.182;24.308;2023-07-31T01:48:36;98639.41;;;23.54;76.19
27840;BME280;15207;42.182;24.308;2023-07-31T01:51:02;98643.09;;;23.41;74.99
27840;BME280;15207;42.182;24.308;2023-07-31T01:53:29;98645.81;;;23.41;76.66
27840;BME280;15207;42.182;24.308;2023-07-31T01:55:56;98643.47;;;23.44;76.60
27840;BME280;15207;42.182;24.308;2023-07-31T01:58:22;98642.59;;;23.50;75.90
27840;BME280;15207;42.182;24.308;2023-07-31T02:00:48;98648.06;;;23.50;75.68
27840;BME280;15207;42.182;24.308;2023-07-31T02:03:14;98649.50;;;23.53;75.10
27840;BME280;15207;42.182;24.308;2023-07-31T02:05:47;98643.38;;;23.58;75.42
27840;BME280;15207;42.182;24.308;2023-07-31T02:08:13;98647.72;;;23.66;76.70
27840;BME280;15207;42.182;24.308;2023-07-31T02:10:39;98646.41;;;23.75;79.69
27840;BME280;15207;42.182;24.308;2023-07-31T02:13:05;98652.25;;;23.78;82.49
27840;BME280;15207;42.182;24.308;2023-07-31T02:15:31;98652.25;;;23.78;82.39
27840;BME280;15207;42.182;24.308;2023-07-31T02:17:57;98649.72;;;23.77;82.16
27840;BME280;15207;42.182;24.308;2023-07-31T02:20:23;98644.69;;;23.74;84.85
27840;BME280;15207;42.182;24.308;2023-07-31T02:22:49;98650.16;;;23.74;85.21
27840;BME280;15207;42.182;24.308;2023-07-31T02:25:14;98648.34;;;23.68;89.38
27840;BME280;15207;42.182;24.308;2023-07-31T02:27:40;98655.75;;;23.60;91.35
27840;BME280;15207;42.182;24.308;2023-07-31T02:30:06;98647.84;;;23.52;89.77
27840;BME280;15207;42.182;24.308;2023-07-31T02:32:32;98647.06;;;23.45;92.06
27840;BME280;15207;42.182;24.308;2023-07-31T02:34:58;98650.91;;;23.37;95.04
27840;BME280;15207;42.182;24.308;2023-07-31T02:37:25;98653.00;;;23.35;93.35
27840;BME280;15207;42.182;24.308;2023-07-31T02:39:51;98650.97;;;23.23;94.71
27840;BME280;15207;42.182;24.308;2023-07-31T02:42:18;98637.13;;;23.18;95.50
27840;BME280;15207;42.182;24.308;2023-07-31T02:44:45;98624.78;;;23.09;95.11
27840;BME280;15207;42.182;24.308;2023-07-31T02:47:12;98626.69;;;23.08;97.38
27840;BME280;15207;42.182;24.308;2023-07-31T02:49:38;98635.31;;;23.05;97.52
27840;BME280;15207;42.182;24.308;2023-07-31T02:52:04;98620.03;;;22.97;96.73
27840;BME280;15207;42.182;24.308;2023-07-31T02:54:29;98628.25;;;22.91;96.87
27840;BME280;15207;42.182;24.308;2023-07-31T02:56:55;98624.47;;;22.92;96.42
27840;BME280;15207;42.182;24.308;2023-07-31T02:59:21;98631.00;;;22.91;96.04
27840;BME280;15207;42.182;24.308;2023-07-31T03:01:46;98636.00;;;22.94;98.95
27840;BME280;15207;42.182;24.308;2023-07-31T03:04:12;98633.53;;;22.85;97.36
27840;BME280;15207;42.182;24.308;2023-07-31T03:06:39;98629.19;;;22.78;96.54
27840;BME280;15207;42.182;24.308;2023-07-31T03:09:05;98636.69;;;22.82;97.67
27840;BME280;15207;42.182;24.308;2023-07-31T03:11:30;98635.88;;;22.82;96.63
27840;BME280;15207;42.182;24.308;2023-07-31T03:13:56;98639.25;;;22.77;96.45
27840;BME280;15207;42.182;24.308;2023-07-31T03:16:22;98649.81;;;22.60;98.32
27840;BME280;15207;42.182;24.308;2023-07-31T03:18:47;98647.09;;;22.60;100.00
27840;BME280;15207;42.182;24.308;2023-07-31T03:21:13;98661.56;;;22.61;100.00
27840;BME280;15207;42.182;24.308;2023-07-31T03:23:40;98655.94;;;22.55;96.44
27840;BME280;15207;42.182;24.308;2023-07-31T03:26:08;98656.53;;;22.51;98.24
27840;BME280;15207;42.182;24.308;2023-07-31T03:28:35;98665.19;;;22.41;98.01
27840;BME280;15207;42.182;24.308;2023-07-31T03:31:01;98660.16;;;22.31;98.72
27840;BME280;15207;42.182;24.308;2023-07-31T03:33:27;98670.44;;;22.36;100.00
27840;BME280;15207;42.182;24.308;2023-07-31T03:35:53;98672.50;;;22.40;98.08
27840;BME280;15207;42.182;24.308;2023-07-31T03:38:19;98678.16;;;22.39;97.44
27840;BME280;15207;42.182;24.308;2023-07-31T03:40:45;98683.69;;;22.25;97.80
27840;BME280;15207;42.182;24.308;2023-07-31T03:43:11;98693.31;;;22.28;99.02
27840;BME280;15207;42.182;24.308;2023-07-31T03:45:37;98680.94;;;22.32;98.96
27840;BME280;15207;42.182;24.308;2023-07-31T03:48:04;98690.16;;;22.31;99.10
27840;BME280;15207;42.182;24.308;2023-07-31T03:50:30;98692.25;;;22.29;98.79
27840;BME280;15207;42.182;24.308;2023-07-31T03:52:56;98697.31;;;22.18;97.67
27840;BME280;15207;42.182;24.308;2023-07-31T03:55:22;98698.78;;;22.08;98.67
27840;BME280;15207;42.182;24.308;2023-07-31T03:57:48;98704.44;;;22.06;96.80
27840;BME280;15207;42.182;24.308;2023-07-31T04:00:14;98701.91;;;22.11;98.41
27840;BME280;15207;42.182;24.308;2023-07-31T04:02:40;98706.97;;;22.21;97.94
27840;BME280;15207;42.182;24.308;2023-07-31T04:05:06;98709.22;;;22.31;98.33
27840;BME280;15207;42.182;24.308;2023-07-31T04:07:31;98701.91;;;22.31;96.84
27840;BME280;15207;42.182;24.308;2023-07-31T04:09:57;98707.34;;;22.38;96.45
27840;BME280;15207;42.182;24.308;2023-07-31T04:12:23;98706.28;;;22.46;96.44
27840;BME280;15207;42.182;24.308;2023-07-31T04:14:49;98707.53;;;22.57;96.36
27840;BME280;15207;42.182;24.308;2023-07-31T04:17:17;98711.50;;;22.61;95.13
27840;BME280;15207;42.182;24.308;2023-07-31T04:19:43;98704.78;;;22.64;93.41
27840;BME280;15207;42.182;24.308;2023-07-31T04:22:09;98703.69;;;22.71;93.14
27840;BME280;15207;42.182;24.308;2023-07-31T04:24:35;98708.72;;;22.81;93.45
27840;BME280;15207;42.182;24.308;2023-07-31T04:27:05;98714.34;;;22.93;93.70
27840;BME280;15207;42.182;24.308;2023-07-31T04:29:35;98707.38;;;22.97;94.93
27840;BME280;15207;42.182;24.308;2023-07-31T04:32:06;98703.41;;;22.93;94.77
27840;BME280;15207;42.182;24.308;2023-07-31T04:34:33;98713.69;;;22.91;94.63
27840;BME280;15207;42.182;24.308;2023-07-31T04:36:58;98719.59;;;22.88;94.67
27840;BME280;15207;42.182;24.308;2023-07-31T04:39:24;98716.22;;;22.93;90.76
27840;BME280;15207;42.182;24.308;2023-07-31T04:41:50;98719.75;;;23.00;89.51
27840;BME280;15207;42.182;24.308;2023-07-31T04:44:16;98712.16;;;23.09;90.39
27840;BME280;15207;42.182;24.308;2023-07-31T04:46:41;98715.69;;;23.16;89.33
27840;BME280;15207;42.182;24.308;2023-07-31T04:49:07;98721.31;;;23.21;89.32
27840;BME280;15207;42.182;24.308;2023-07-31T04:51:33;98722.56;;;23.25;89.18
27840;BME280;15207;42.182;24.308;2023-07-31T04:53:59;98722.56;;;23.25;88.80
27840;BME280;15207;42.182;24.308;2023-07-31T04:56:25;98730.31;;;23.29;88.44
27840;BME280;15207;42.182;24.308;2023-07-31T04:58:52;98731.31;;;23.41;88.30
27840;BME280;15207;42.182;24.308;2023-07-31T05:01:18;98721.38;;;23.54;87.24
27840;BME280;15207;42.182;24.308;2023-07-31T05:03:44;98723.72;;;23.75;86.44
27840;BME280;15207;42.182;24.308;2023-07-31T05:06:11;98722.41;;;23.85;83.19
27840;BME280;15207;42.182;24.308;2023-07-31T05:08:40;98727.09;;;24.03;82.64
27840;BME280;15207;42.182;24.308;2023-07-31T05:11:06;98717.94;;;24.16;82.22
27840;BME280;15207;42.182;24.308;2023-07-31T05:13:33;98715.63;;;24.38;79.88
27840;BME280;15207;42.182;24.308;2023-07-31T05:15:58;98719.22;;;24.58;80.16
27840;BME280;15207;42.182;24.308;2023-07-31T05:18:25;98712.28;;;24.74;78.83
27840;BME280;15207;42.182;24.308;2023-07-31T05:20:52;98712.63;;;24.84;79.58
27840;BME280;15207;42.182;24.308;2023-07-31T05:23:19;98709.22;;;24.89;78.29
27840;BME280;15207;42.182;24.308;2023-07-31T05:25:45;98711.16;;;25.00;75.39
27840;BME280;15207;42.182;24.308;2023-07-31T05:28:12;98692.53;;;25.21;75.63
27840;BME280;15207;42.182;24.308;2023-07-31T05:30:38;98697.53;;;25.43;74.59
27840;BME280;15207;42.182;24.308;2023-07-31T05:33:04;98702.81;;;25.56;74.82
27840;BME280;15207;42.182;24.308;2023-07-31T05:35:32;98705.34;;;25.70;71.22
27840;BME280;15207;42.182;24.308;2023-07-31T05:37:59;98705.63;;;25.49;68.92
27840;BME280;15207;42.182;24.308;2023-07-31T05:40:25;98709.03;;;25.33;70.79
27840;BME280;15207;42.182;24.308;2023-07-31T05:42:51;98709.47;;;25.30;70.53
27840;BME280;15207;42.182;24.308;2023-07-31T05:45:18;98710.97;;;25.44;72.22
27840;BME280;15207;42.182;24.308;2023-07-31T05:47:44;98709.16;;;25.69;72.32
27840;BME280;15207;42.182;24.308;2023-07-31T05:50:13;98708.22;;;25.87;71.80
27840;BME280;15207;42.182;24.308;2023-07-31T05:52:41;98705.97;;;26.08;69.42
27840;BME280;15207;42.182;24.308;2023-07-31T05:55:08;98708.63;;;26.26;68.54
27840;BME280;15207;42.182;24.308;2023-07-31T05:57:34;98705.41;;;26.30;66.74
27840;BME280;15207;42.182;24.308;2023-07-31T05:59:59;98705.50;;;26.35;66.85
27840;BME280;15207;42.182;24.308;2023-07-31T06:02:25;98697.38;;;26.52;67.54
27840;BME280;15207;42.182;24.308;2023-07-31T06:04:51;98704.81;;;26.80;67.16
27840;BME280;15207;42.182;24.308;2023-07-31T06:07:17;98711.28;;;26.86;64.80
27840;BME280;15207;42.182;24.308;2023-07-31T06:09:44;98713.44;;;26.96;65.28
27840;BME280;15207;42.182;24.308;2023-07-31T06:12:10;98708.56;;;27.15;65.14
27840;BME280;15207;42.182;24.308;2023-07-31T06:14:38;98714.31;;;27.14;64.13
27840;BME280;15207;42.182;24.308;2023-07-31T06:17:05;98717.09;;;27.31;63.80
27840;BME280;15207;42.182;24.308;2023-07-31T06:19:32;98722.38;;;27.32;64.20
27840;BME280;15207;42.182;24.308;2023-07-31T06:21:58;98717.06;;;27.43;63.90
27840;BME280;15207;42.182;24.308;2023-07-31T06:24:24;98721.63;;;27.66;62.62
27840;BME280;15207;42.182;24.308;2023-07-31T06:26:49;98708.53;;;27.91;61.92
27840;BME280;15207;42.182;24.308;2023-07-31T06:29:16;98713.44;;;28.06;60.50
27840;BME280;15207;42.182;24.308;2023-07-31T06:31:41;98706.78;;;28.02;60.90
27840;BME280;15207;42.182;24.308;2023-07-31T06:34:07;98716.44;;;27.87;59.34
27840;BME280;15207;42.182;24.308;2023-07-31T06:36:33;98719.72;;;27.84;61.09
27840;BME280;15207;42.182;24.308;2023-07-31T06:38:59;98720.22;;;27.98;60.71
27840;BME280;15207;42.182;24.308;2023-07-31T06:41:25;98714.09;;;27.96;59.41
27840;BME280;15207;42.182;24.308;2023-07-31T06:43:52;98716.03;;;27.95;60.15
27840;BME280;15207;42.182;24.308;2023-07-31T06:46:22;98716.03;;;28.12;61.27
27840;BME280;15207;42.182;24.308;2023-07-31T06:48:48;98716.53;;;27.92;59.42
27840;BME280;15207;42.182;24.308;2023-07-31T06:51:14;98717.94;;;27.78;59.75
27840;BME280;15207;42.182;24.308;2023-07-31T06:53:40;98712.13;;;27.74;60.73
27840;BME280;15207;42.182;24.308;2023-07-31T06:56:06;98720.28;;;27.69;60.43
27840;BME280;15207;42.182;24.308;2023-07-31T06:58:34;98712.44;;;27.61;59.06
27840;BME280;15207;42.182;24.308;2023-07-31T07:01:00;98725.78;;;27.40;61.47
27840;BME280;15207;42.182;24.308;2023-07-31T07:03:27;98726.72;;;27.45;62.76
27840;BME280;15207;42.182;24.308;2023-07-31T07:05:53;98724.22;;;27.44;62.50
27840;BME280;15207;42.182;24.308;2023-07-31T07:08:19;98724.91;;;27.51;62.00
27840;BME280;15207;42.182;24.308;2023-07-31T07:10:45;98726.91;;;27.56;61.06
27840;BME280;15207;42.182;24.308;2023-07-31T07:13:15;98723.38;;;27.43;60.20
27840;BME280;15207;42.182;24.308;2023-07-31T07:15:40;98724.78;;;27.46;61.42
27840;BME280;15207;42.182;24.308;2023-07-31T07:18:06;98720.72;;;27.49;59.52
27840;BME280;15207;42.182;24.308;2023-07-31T07:20:32;98716.13;;;27.37;58.44
27840;BME280;15207;42.182;24.308;2023-07-31T07:22:58;98720.13;;;27.46;59.52
27840;BME280;15207;42.182;24.308;2023-07-31T07:25:24;98717.56;;;27.57;58.91
27840;BME280;15207;42.182;24.308;2023-07-31T07:27:51;98714.00;;;27.56;58.46
27840;BME280;15207;42.182;24.308;2023-07-31T07:30:17;98713.28;;;27.61;58.97
27840;BME280;15207;42.182;24.308;2023-07-31T07:32:46;98713.78;;;27.75;56.08
27840;BME280;15207;42.182;24.308;2023-07-31T07:35:11;98717.13;;;27.77;56.82
27840;BME280;15207;42.182;24.308;2023-07-31T07:37:37;98720.38;;;27.91;54.93
27840;BME280;15207;42.182;24.308;2023-07-31T07:40:03;98714.38;;;27.94;56.38
27840;BME280;15207;42.182;24.308;2023-07-31T07:42:29;98713.34;;;28.18;54.79
27840;BME280;15207;42.182;24.308;2023-07-31T07:44:55;98716.84;;;28.30;55.62
27840;BME280;15207;42.182;24.308;2023-07-31T07:47:20;98709.91;;;28.45;53.03
27840;BME280;15207;42.182;24.308;2023-07-31T07:49:46;98703.78;;;28.60;52.52
27840;BME280;15207;42.182;24.308;2023-07-31T07:52:12;98703.94;;;28.93;51.13
27840;BME280;15207;42.182;24.308;2023-07-31T07:54:38;98704.19;;;29.13;51.20
27840;BME280;15207;42.182;24.308;2023-07-31T07:57:04;98696.38;;;29.33;49.88
27840;BME280;15207;42.182;24.308;2023-07-31T07:59:30;98700.84;;;29.39;49.25
27840;BME280;15207;42.182;24.308;2023-07-31T08:01:56;98695.19;;;29.51;48.05
27840;BME280;15207;42.182;24.308;2023-07-31T08:04:24;98696.50;;;29.48;48.83
27840;BME280;15207;42.182;24.308;2023-07-31T08:06:51;98701.81;;;29.50;48.40
27840;BME280;15207;42.182;24.308;2023-07-31T08:09:16;98693.47;;;29.44;48.03
27840;BME280;15207;42.182;24.308;2023-07-31T08:11:42;98690.06;;;29.60;48.72
27840;BME280;15207;42.182;24.308;2023-07-31T08:14:09;98688.81;;;29.78;47.36
27840;BME280;15207;42.182;24.308;2023-07-31T08:16:35;98693.16;;;29.68;47.77
27840;BME280;15207;42.182;24.308;2023-07-31T08:19:01;98682.28;;;29.89;47.49
27840;BME280;15207;42.182;24.308;2023-07-31T08:21:26;98693.72;;;30.08;47.94
27840;BME280;15207;42.182;24.308;2023-07-31T08:23:52;98684.69;;;30.13;47.82
27840;BME280;15207;42.182;24.308;2023-07-31T08:26:18;98683.06;;;30.17;47.92
27840;BME280;15207;42.182;24.308;2023-07-31T08:28:47;98690.50;;;30.17;46.85
27840;BME280;15207;42.182;24.308;2023-07-31T08:31:13;98680.03;;;30.24;46.51
27840;BME280;15207;42.182;24.308;2023-07-31T08:33:39;98683.84;;;30.13;46.16
27840;BME280;15207;42.182;24.308;2023-07-31T08:36:06;98687.25;;;30.25;46.48
27840;BME280;15207;42.182;24.308;2023-07-31T08:38:32;98671.59;;;30.46;45.50
27840;BME280;15207;42.182;24.308;2023-07-31T08:40:58;98673.91;;;30.65;45.86
27840;BME280;15207;42.182;24.308;2023-07-31T08:43:28;98683.38;;;30.80;44.29
27840;BME280;15207;42.182;24.308;2023-07-31T08:45:54;98677.66;;;31.07;44.42
27840;BME280;15207;42.182;24.308;2023-07-31T08:48:23;98674.63;;;31.09;42.66
27840;BME280;15207;42.182;24.308;2023-07-31T08:50:52;98680.69;;;31.06;42.27
27840;BME280;15207;42.182;24.308;2023-07-31T08:53:18;98673.25;;;31.06;42.88
27840;BME280;15207;42.182;24.308;2023-07-31T08:55:44;98656.88;;;30.84;42.24
27840;BME280;15207;42.182;24.308;2023-07-31T08:58:12;98666.84;;;30.90;41.25
27840;BME280;15207;42.182;24.308;2023-07-31T09:00:39;98666.59;;;31.02;41.88
27840;BME280;15207;42.182;24.308;2023-07-31T09:03:13;98659.16;;;31.08;41.31
27840;BME280;15207;42.182;24.308;2023-07-31T09:05:42;98652.25;;;31.05;40.41
27840;BME280;15207;42.182;24.308;2023-07-31T09:08:09;98658.97;;;31.40;41.25
27840;BME280;15207;42.182;24.308;2023-07-31T09:10:35;98649.28;;;31.53;40.07
27840;BME280;15207;42.182;24.308;2023-07-31T09:13:02;98658.41;;;31.49;41.28
27840;BME280;15207;42.182;24.308;2023-07-31T09:15:29;98656.75;;;31.43;40.40
27840;BME280;15207;42.182;24.308;2023-07-31T09:18:02;98656.75;;;31.43;39.31
27840;BME280;15207;42.182;24.308;2023-07-31T09:20:27;98649.28;;;31.43;39.15
27840;BME280;15207;42.182;24.308;2023-07-31T09:22:54;98651.22;;;31.53;40.61
27840;BME280;15207;42.182;24.308;2023-07-31T09:25:25;98650.91;;;31.80;40.45
27840;BME280;15207;42.182;24.308;2023-07-31T09:27:57;98663.09;;;31.85;38.75
27840;BME280;15207;42.182;24.308;2023-07-31T09:30:24;98657.56;;;31.95;39.21
27840;BME280;15207;42.182;24.308;2023-07-31T09:32:51;98653.16;;;31.78;38.14
27840;BME280;15207;42.182;24.308;2023-07-31T09:35:30;98650.66;;;31.61;38.41
27840;BME280;15207;42.182;24.308;2023-07-31T09:37:59;98643.75;;;31.53;38.90
27840;BME280;15207;42.182;24.308;2023-07-31T09:40:31;98650.09;;;31.80;39.18
27840;BME280;15207;42.182;24.308;2023-07-31T09:42:59;98641.78;;;31.90;38.03
27840;BME280;15207;42.182;24.308;2023-07-31T09:45:26;98639.31;;;31.78;37.80
27840;BME280;15207;42.182;24.308;2023-07-31T09:47:52;98636.25;;;31.80;38.18
27840;BME280;15207;42.182;24.308;2023-07-31T09:50:20;98634.88;;;31.77;38.64
27840;BME280;15207;42.182;24.308;2023-07-31T09:52:46;98632.66;;;31.85;37.61
27840;BME280;15207;42.182;24.308;2023-07-31T09:55:12;98631.81;;;32.05;36.13
27840;BME280;15207;42.182;24.308;2023-07-31T09:57:44;98627.41;;;31.99;36.29
27840;BME280;15207;42.182;24.308;2023-07-31T10:00:13;98629.91;;;31.95;35.82
27840;BME280;15207;42.182;24.308;2023-07-31T10:02:40;98627.94;;;32.06;36.21
27840;BME280;15207;42.182;24.308;2023-07-31T10:05:07;98627.00;;;32.42;35.32
27840;BME280;15207;42.182;24.308;2023-07-31T10:07:37;98621.41;;;32.57;35.94
27840;BME280;15207;42.182;24.308;2023-07-31T10:10:07;98623.09;;;32.48;36.17
27840;BME280;15207;42.182;24.308;2023-07-31T10:12:33;98623.31;;;32.67;36.33
27840;BME280;15207;42.182;24.308;2023-07-31T10:15:00;98617.75;;;32.72;36.20
27840;BME280;15207;42.182;24.308;2023-07-31T10:17:26;98614.69;;;32.74;35.60
27840;BME280;15207;42.182;24.308;2023-07-31T10:19:55;98609.50;;;32.62;34.61
27840;BME280;15207;42.182;24.308;2023-07-31T10:22:21;98604.44;;;32.75;35.13
27840;BME280;15207;42.182;24.308;2023-07-31T10:24:48;98597.22;;;32.74;34.96
27840;BME280;15207;42.182;24.308;2023-07-31T10:27:14;98593.41;;;32.64;34.22
27840;BME280;15207;42.182;24.308;2023-07-31T10:29:41;98584.38;;;32.93;35.18
27840;BME280;15207;42.182;24.308;2023-07-31T10:32:09;98592.72;;;32.88;34.00
27840;BME280;15207;42.182;24.308;2023-07-31T10:34:39;98586.09;;;32.84;34.57
27840;BME280;15207;42.182;24.308;2023-07-31T10:39:57;98580.91;;;32.67;33.87
27840;BME280;15207;42.182;24.308;2023-07-31T10:42:30;98577.09;;;32.57;34.00
27840;BME280;15207;42.182;24.308;2023-07-31T10:45:01;98578.44;;;32.65;34.15
27840;BME280;15207;42.182;24.308;2023-07-31T10:47:27;98575.91;;;32.74;33.54
27840;BME280;15207;42.182;24.308;2023-07-31T10:50:20;98566.97;;;32.82;33.98
27840;BME280;15207;42.182;24.308;2023-07-31T10:52:50;98566.59;;;33.00;33.42
27840;BME280;15207;42.182;24.308;2023-07-31T10:55:52;98566.25;;;33.11;33.38
27840;BME280;15207;42.182;24.308;2023-07-31T10:58:20;98571.66;;;32.87;34.99
27840;BME280;15207;42.182;24.308;2023-07-31T11:00:49;98576.47;;;32.71;35.20
27840;BME280;15207;42.182;24.308;2023-07-31T11:03:19;98573.81;;;32.50;35.48
27840;BME280;15207;42.182;24.308;2023-07-31T11:05:50;98574.19;;;32.23;35.38
27840;BME280;15207;42.182;24.308;2023-07-31T11:08:19;98570.31;;;32.18;36.23
27840;BME280;15207;42.182;24.308;2023-07-31T11:10:47;98569.53;;;32.02;35.95
27840;BME280;15207;42.182;24.308;2023-07-31T11:13:14;98560.34;;;32.23;35.45
27840;BME280;15207;42.182;24.308;2023-07-31T11:15:40;98555.97;;;32.11;35.95
27840;BME280;15207;42.182;24.308;2023-07-31T11:18:06;98558.09;;;32.25;36.44
27840;BME280;15207;42.182;24.308;2023-07-31T11:20:35;98561.13;;;32.39;35.45
27840;BME280;15207;42.182;24.308;2023-07-31T11:23:03;98562.91;;;32.69;35.48
27840;BME280;15207;42.182;24.308;2023-07-31T11:25:33;98552.41;;;32.66;34.40
27840;BME280;15207;42.182;24.308;2023-07-31T11:28:06;98547.88;;;32.76;33.82
27840;BME280;15207;42.182;24.308;2023-07-31T11:30:32;98541.78;;;32.79;34.84
27840;BME280;15207;42.182;24.308;2023-07-31T11:33:00;98536.06;;;33.05;34.13
27840;BME280;15207;42.182;24.308;2023-07-31T11:35:30;98539.13;;;33.03;34.04
27840;BME280;15207;42.182;24.308;2023-07-31T11:37:56;98543.22;;;33.11;35.21
27840;BME280;15207;42.182;24.308;2023-07-31T11:40:22;98536.63;;;33.07;33.87
27840;BME280;15207;42.182;24.308;2023-07-31T11:42:47;98525.69;;;33.21;33.70
27840;BME280;15207;42.182;24.308;2023-07-31T11:45:13;98536.53;;;33.17;33.90
27840;BME280;15207;42.182;24.308;2023-07-31T11:47:40;98535.91;;;33.25;33.99
27840;BME280;15207;42.182;24.308;2023-07-31T11:50:12;98540.25;;;32.97;33.55
27840;BME280;15207;42.182;24.308;2023-07-31T11:52:44;98544.34;;;32.70;34.79
27840;BME280;15207;42.182;24.308;2023-07-31T11:55:12;98524.97;;;32.70;35.22
27840;BME280;15207;42.182;24.308;2023-07-31T11:57:39;98526.53;;;32.81;34.65
27840;BME280;15207;42.182;24.308;2023-07-31T12:00:07;98519.09;;;32.77;34.64
27840;BME280;15207;42.182;24.308;2023-07-31T12:02:37;98514.91;;;32.79;35.57
27840;BME280;15207;42.182;24.308;2023-07-31T12:05:14;98519.88;;;32.82;34.72
27840;BME280;15207;42.182;24.308;2023-07-31T12:07:52;98520.53;;;32.69;35.20
27840;BME280;15207;42.182;24.308;2023-07-31T12:10:29;98509.25;;;32.55;34.60
27840;BME280;15207;42.182;24.308;2023-07-31T12:13:01;98509.91;;;32.36;34.90
27840;BME280;15207;42.182;24.308;2023-07-31T12:15:39;98507.56;;;32.59;33.73
27840;BME280;15207;42.182;24.308;2023-07-31T12:18:24;98509.06;;;32.81;34.22
27840;BME280;15207;42.182;24.308;2023-07-31T12:21:00;98496.56;;;32.89;33.00
27840;BME280;15207;42.182;24.308;2023-07-31T12:23:29;98493.75;;;32.94;32.49
27840;BME280;15207;42.182;24.308;2023-07-31T12:28:40;98488.25;;;32.89;33.82
27840;BME280;15207;42.182;24.308;2023-07-31T12:31:08;98488.19;;;32.99;33.73
27840;BME280;15207;42.182;24.308;2023-07-31T12:33:36;98484.25;;;33.05;34.61
27840;BME280;15207;42.182;24.308;2023-07-31T12:36:10;98483.03;;;33.17;34.01
27840;BME280;15207;42.182;24.308;2023-07-31T12:38:37;98488.06;;;33.15;33.68
27840;BME280;15207;42.182;24.308;2023-07-31T12:41:03;98475.94;;;33.05;32.80
27840;BME280;15207;42.182;24.308;2023-07-31T12:43:29;98481.53;;;33.00;32.60
27840;BME280;15207;42.182;24.308;2023-07-31T12:45:55;98470.28;;;32.81;33.53
27840;BME280;15207;42.182;24.308;2023-07-31T12:48:23;98468.34;;;32.81;33.94
27840;BME280;15207;42.182;24.308;2023-07-31T12:50:49;98458.38;;;32.80;34.71
27840;BME280;15207;42.182;24.308;2023-07-31T12:53:15;98460.47;;;32.99;34.66
27840;BME280;15207;42.182;24.308;2023-07-31T12:55:41;98461.75;;;33.12;33.07
27840;BME280;15207;42.182;24.308;2023-07-31T12:58:08;98466.69;;;33.15;30.68
27840;BME280;15207;42.182;24.308;2023-07-31T13:00:34;98458.31;;;33.20;32.96
27840;BME280;15207;42.182;24.308;2023-07-31T13:03:03;98457.78;;;33.18;33.67
27840;BME280;15207;42.182;24.308;2023-07-31T13:05:28;98452.53;;;33.17;33.06